createdAt,value
2022-08-27T00:04:21.199Z,4.10
2022-08-27T00:09:27.038Z,4.43
2022-08-27T00:14:30.542Z,4.65
2022-08-27T00:19:33.970Z,4.20
2022-08-27T00:24:38.531Z,4.38
2022-08-27T00:29:51.991Z,4.30
2022-08-27T00:34:54.761Z,4.38
2022-08-27T00:39:57.594Z,5.00
2022-08-27T00:45:00.861Z,4.57
2022-08-27T00:50:09.365Z,3.88
2022-08-27T00:55:39.815Z,4.40
2022-08-27T01:00:44.483Z,4.53
2022-08-27T01:05:49.521Z,4.60
2022-08-27T01:10:54.285Z,4.53
2022-08-27T01:15:59.504Z,4.93
2022-08-27T01:21:26.376Z,4.53
2022-08-27T01:26:30.851Z,4.00
2022-08-27T01:31:33.869Z,4.57
2022-08-27T01:36:36.916Z,4.60
2022-08-27T01:41:39.737Z,4.30
2022-08-27T01:46:42.667Z,4.50
2022-08-27T01:51:45.558Z,4.32
2022-08-27T01:56:48.458Z,4.10
2022-08-27T02:01:51.575Z,4.67
2022-08-27T02:06:54.472Z,4.70
2022-08-27T02:11:58.231Z,5.17
2022-08-27T02:17:01.335Z,4.95
2022-08-27T02:22:04.266Z,4.07
2022-08-27T02:27:07.282Z,3.97
2022-08-27T02:32:17.494Z,4.78
2022-08-27T02:37:27.456Z,5.27
2022-08-27T02:42:30.865Z,4.55
2022-08-27T02:47:35.332Z,4.75
2022-08-27T02:52:38.508Z,4.97
2022-08-27T02:57:41.481Z,4.55
2022-08-27T03:02:44.520Z,4.93
2022-08-27T03:07:47.552Z,4.60
2022-08-27T03:12:50.730Z,4.72
2022-08-27T03:18:12.533Z,4.87
2022-08-27T03:23:17.272Z,4.78
2022-08-27T03:28:26.196Z,4.87
2022-08-27T03:33:30.465Z,5.35
2022-08-27T03:38:33.664Z,4.55
2022-08-27T03:43:36.825Z,4.60
2022-08-27T03:48:40.006Z,4.70
2022-08-27T03:53:44.810Z,4.93
2022-08-27T03:58:47.719Z,4.95
2022-08-27T04:03:52.566Z,4.47
2022-08-27T04:08:55.551Z,4.37
2022-08-27T04:13:58.995Z,5.00
2022-08-27T04:19:03.922Z,4.87
2022-08-27T04:24:07.195Z,4.57
2022-08-27T04:29:10.286Z,4.45
2022-08-27T04:34:13.146Z,4.60
2022-08-27T04:39:16.395Z,5.30
2022-08-27T04:44:23.007Z,4.77
2022-08-27T04:49:29.884Z,5.45
2022-08-27T04:54:37.433Z,4.32
2022-08-27T04:59:40.398Z,4.53
2022-08-27T05:04:44.888Z,4.82
2022-08-27T05:09:48.013Z,5.40
2022-08-27T05:14:51.221Z,5.10
2022-08-27T05:19:54.245Z,5.10
2022-08-27T05:24:57.181Z,4.90
2022-08-27T05:30:00.114Z,5.10
2022-08-27T05:35:02.992Z,5.50
2022-08-27T05:40:06.973Z,4.90
2022-08-27T05:45:10.380Z,5.25
2022-08-27T05:50:23.055Z,5.47
2022-08-27T05:55:29.706Z,5.00
2022-08-27T06:00:50.985Z,5.30
2022-08-27T06:06:02.297Z,5.60
2022-08-27T06:11:07.329Z,6.35
2022-08-27T06:16:21.506Z,5.63
2022-08-27T06:21:25.017Z,5.60
2022-08-27T06:26:28.601Z,5.37
2022-08-27T06:31:31.978Z,5.80
2022-08-27T06:36:38.066Z,5.60
2022-08-27T06:41:42.625Z,5.00
2022-08-27T06:46:47.534Z,5.18
2022-08-27T06:51:50.643Z,5.87
2022-08-27T06:56:53.673Z,5.90
2022-08-27T07:01:56.712Z,6.32
2022-08-27T07:06:59.669Z,6.90
2022-08-27T07:12:02.785Z,6.63
2022-08-27T07:17:08.187Z,6.73
2022-08-27T07:22:14.433Z,7.20
2022-08-27T07:27:17.383Z,8.10
2022-08-27T07:32:20.298Z,9.00
2022-08-27T07:37:23.357Z,6.88
2022-08-27T07:42:48.697Z,5.90
2022-08-27T07:47:52.235Z,5.40
2022-08-27T07:52:55.205Z,5.18
2022-08-27T07:57:58.227Z,5.50
2022-08-27T08:03:02.180Z,5.50
2022-08-27T08:08:05.106Z,6.07
2022-08-27T08:13:08.596Z,5.45
2022-08-27T08:18:12.446Z,5.85
2022-08-27T08:23:15.537Z,5.30
2022-08-27T08:28:18.486Z,5.80
2022-08-27T08:33:22.220Z,5.63
2022-08-27T08:38:26.485Z,5.57
2022-08-27T08:43:47.657Z,5.80
2022-08-27T08:48:54.911Z,5.90
2022-08-27T08:54:07.406Z,6.32
2022-08-27T08:59:42.896Z,6.53
2022-08-27T09:04:46.047Z,5.50
2022-08-27T09:10:08.227Z,5.57
2022-08-27T09:15:14.201Z,5.70
2022-08-27T09:20:25.692Z,5.63
2022-08-27T09:25:36.897Z,5.10
2022-08-27T09:30:44.101Z,5.20
2022-08-27T09:35:47.976Z,5.20
2022-08-27T09:40:52.770Z,5.37
2022-08-27T09:45:58.649Z,5.68
2022-08-27T09:51:12.896Z,5.77
2022-08-27T09:56:32.543Z,4.97
2022-08-27T10:01:39.113Z,4.78
2022-08-27T10:06:50.897Z,5.67
2022-08-27T10:12:20.006Z,6.28
2022-08-27T10:17:31.695Z,6.17
2022-08-27T10:23:05.940Z,6.10
2022-08-27T10:28:39.225Z,6.38
2022-08-27T10:33:58.850Z,6.20
2022-08-27T10:39:21.337Z,5.90
2022-08-27T10:44:44.956Z,6.13
2022-08-27T10:49:59.875Z,5.90
2022-08-27T10:55:21.404Z,6.40
2022-08-27T11:00:25.706Z,7.13
2022-08-27T11:05:53.880Z,6.95
2022-08-27T11:11:51.467Z,7.00
2022-08-27T11:16:45.273Z,7.07
2022-08-27T11:22:04.467Z,6.82
2022-08-27T11:27:09.265Z,6.47
2022-08-27T11:32:42.250Z,6.72
2022-08-27T11:38:02.265Z,7.07
2022-08-27T11:43:11.785Z,6.13
2022-08-27T11:48:30.827Z,6.10
2022-08-27T11:53:42.709Z,5.90
2022-08-27T11:58:55.316Z,6.13
2022-08-27T12:04:06.234Z,6.53
2022-08-27T12:09:20.944Z,5.63
2022-08-27T12:14:50.111Z,5.45
2022-08-27T12:20:46.947Z,5.63
2022-08-27T12:26:01.900Z,6.10
2022-08-27T12:31:07.153Z,5.77
2022-08-27T12:36:33.077Z,6.13
2022-08-27T12:41:43.643Z,6.20
2022-08-27T12:46:51.120Z,5.73
2022-08-27T12:51:56.055Z,5.15
2022-08-27T12:57:31.355Z,6.50
2022-08-27T13:03:11.896Z,5.78
2022-08-27T13:08:35.485Z,6.35
2022-08-27T13:13:38.445Z,6.67
2022-08-27T13:18:41.737Z,6.28
2022-08-27T13:23:56.435Z,6.30
2022-08-27T13:29:03.536Z,5.95
2022-08-27T13:34:07.598Z,6.00
2022-08-27T13:39:10.626Z,6.07
2022-08-27T13:44:22.167Z,6.50
2022-08-27T13:49:27.926Z,6.23
2022-08-27T13:54:33.806Z,6.00
2022-08-27T13:59:42.971Z,6.18
2022-08-27T14:05:06.687Z,6.50
2022-08-27T14:10:25.987Z,6.63
2022-08-27T14:15:43.444Z,6.50
2022-08-27T14:20:46.426Z,5.93
2022-08-27T14:25:49.978Z,6.00
2022-08-27T14:30:53.764Z,6.40
2022-08-27T14:35:57.145Z,6.32
2022-08-27T14:41:00.866Z,6.30
2022-08-27T14:46:04.881Z,5.60
2022-08-27T14:51:13.735Z,5.88
2022-08-27T14:56:16.547Z,5.67
2022-08-27T15:01:23.157Z,6.15
2022-08-27T15:06:27.467Z,5.77
2022-08-27T15:11:34.217Z,6.13
2022-08-27T15:16:40.369Z,6.60
2022-08-27T15:21:47.806Z,6.90
2022-08-27T15:26:57.756Z,7.05
2022-08-27T15:32:00.700Z,6.47
2022-08-27T15:37:04.256Z,6.72
2022-08-27T15:42:08.901Z,7.47
2022-08-27T15:47:13.690Z,7.23
2022-08-27T15:52:22.462Z,8.18
2022-08-27T15:57:25.499Z,7.97
2022-08-27T16:02:28.523Z,8.10
2022-08-27T16:07:31.605Z,7.75
2022-08-27T16:12:36.339Z,8.23
2022-08-27T16:17:39.723Z,8.50
2022-08-27T16:22:44.004Z,7.60
2022-08-27T16:27:47.893Z,8.20
2022-08-27T16:32:52.773Z,7.63
2022-08-27T16:37:55.848Z,7.47
2022-08-27T16:43:01.781Z,7.10
2022-08-27T16:48:23.610Z,7.93
2022-08-27T16:53:26.520Z,7.45
2022-08-27T16:58:31.889Z,7.75
2022-08-27T17:09:12.102Z,8.43
2022-08-27T17:14:15.740Z,8.80
2022-08-27T17:19:19.220Z,9.10
2022-08-27T17:24:22.433Z,9.35
2022-08-27T17:29:25.532Z,8.40
2022-08-27T17:34:29.130Z,8.52
2022-08-27T17:39:32.249Z,8.83
2022-08-27T17:44:37.342Z,9.43
2022-08-27T17:49:40.370Z,10.02
2022-08-27T17:54:46.458Z,9.47
2022-08-27T17:59:50.249Z,9.88
2022-08-27T18:04:53.796Z,9.53
2022-08-27T18:09:57.031Z,9.88
2022-08-27T18:15:18.684Z,10.93
2022-08-27T18:20:26.134Z,10.07
2022-08-27T18:25:35.389Z,11.07
2022-08-27T18:30:41.996Z,10.77
2022-08-27T18:35:45.109Z,10.40
2022-08-27T18:40:50.120Z,10.18
2022-08-27T18:45:55.546Z,10.90
2022-08-27T18:51:00.561Z,11.82
2022-08-27T18:56:07.439Z,10.47
2022-08-27T19:01:14.162Z,13.20
2022-08-27T19:06:19.657Z,14.40
2022-08-27T19:11:23.159Z,14.07
2022-08-27T19:16:40.694Z,13.90
2022-08-27T19:21:48.014Z,13.93
2022-08-27T19:26:54.657Z,14.50
2022-08-27T19:31:57.678Z,12.95
2022-08-27T19:37:02.603Z,14.00
2022-08-27T19:42:06.451Z,14.00
2022-08-27T19:47:12.061Z,12.87
2022-08-27T19:52:15.518Z,13.48
2022-08-27T19:57:18.567Z,12.10
2022-08-27T20:02:21.554Z,12.83
2022-08-27T20:07:24.833Z,13.65
2022-08-27T20:12:27.904Z,13.90
2022-08-27T20:17:31.279Z,13.27
2022-08-27T20:22:34.465Z,10.95
2022-08-27T20:27:38.508Z,10.17
2022-08-27T20:32:41.819Z,8.93
2022-08-27T20:37:44.759Z,10.47
2022-08-27T20:42:47.979Z,6.95
2022-08-27T20:47:53.558Z,6.50
2022-08-27T20:52:56.759Z,5.83
2022-08-27T20:58:17.983Z,6.03
2022-08-27T21:03:20.935Z,5.53
2022-08-27T21:08:23.709Z,4.90
2022-08-27T21:13:29.148Z,4.85
2022-08-27T21:18:35.058Z,4.47
2022-08-27T21:23:39.823Z,4.28
2022-08-27T21:28:44.499Z,3.67
2022-08-27T21:33:47.527Z,4.07
2022-08-27T21:38:51.218Z,3.85
2022-08-27T21:43:54.849Z,3.10
2022-08-27T21:48:59.000Z,3.83
2022-08-27T21:54:02.618Z,3.63
2022-08-27T21:59:08.019Z,4.05
2022-08-27T22:04:11.056Z,4.25
2022-08-27T22:09:14.342Z,3.73
2022-08-27T22:14:18.493Z,4.07
2022-08-27T22:19:21.314Z,3.90
2022-08-27T22:24:24.674Z,4.10
2022-08-27T22:29:27.774Z,4.55
2022-08-27T22:34:34.224Z,4.50
2022-08-27T22:39:37.319Z,4.30
2022-08-27T22:44:41.279Z,4.30
2022-08-27T22:49:44.803Z,4.88
2022-08-27T22:54:47.600Z,4.50
2022-08-27T22:59:50.420Z,5.40
2022-08-27T23:04:55.303Z,5.25
2022-08-27T23:09:59.113Z,5.43
2022-08-27T23:15:03.618Z,5.53
2022-08-27T23:20:10.329Z,5.85
2022-08-27T23:25:31.657Z,5.70
2022-08-27T23:30:35.804Z,5.90
2022-08-27T23:35:39.150Z,5.40
2022-08-27T23:40:42.898Z,5.68
2022-08-27T23:45:45.743Z,6.13
2022-08-27T23:50:48.711Z,5.70
2022-08-27T23:55:51.572Z,6.30
